Terminal Aerodrome Forecast
Issued by NWS

Home | Current Version | Previous Version | Text Only | Print | Product List | Glossary On
Versions: 1 2 3 4 5 6 7 8 9 10 11 12 13 14 15 16 17 18 19 20 21 22 23
000
FTUS41 KBTV 260701 AAA
TAFPBG
TAF AMD
KPBG 260701Z 2607/2706 27008KT P6SM VCSH OVC045
     FM261200 30014G24KT P6SM BKN040
     FM262200 28009KT P6SM SCT150
     FM270000 22004KT P6SM SCT150=

USA.gov is the U.S. government's official web portal to all federal, state and local government web resources and services.